createdAt,value
2017-07-22T00:00:24.231Z,77.6
2017-07-22T00:01:25.964Z,77.6
2017-07-22T00:02:27.730Z,77.6
2017-07-22T00:03:29.538Z,77.6
2017-07-22T00:04:31.260Z,77.6
2017-07-22T00:05:33.062Z,77.4
2017-07-22T00:06:34.771Z,77.5
2017-07-22T00:07:36.551Z,77.8
2017-07-22T00:08:38.296Z,77.9
2017-07-22T00:09:41.150Z,77.9
2017-07-22T00:10:42.873Z,78.0
2017-07-22T00:11:45.586Z,78.0
2017-07-22T00:12:47.308Z,77.9
2017-07-22T00:13:50.032Z,78.3
2017-07-22T00:14:51.758Z,78.1
2017-07-22T00:15:53.558Z,77.9
2017-07-22T00:16:55.258Z,78.1
2017-07-22T00:17:57.078Z,78.1
2017-07-22T00:18:58.805Z,77.9
2017-07-22T00:20:01.577Z,78.1
2017-07-22T00:21:03.313Z,78.0
2017-07-22T00:22:05.064Z,78.7
2017-07-22T00:23:06.820Z,78.0
2017-07-22T00:24:08.564Z,78.6
2017-07-22T00:25:10.284Z,78.0
2017-07-22T00:26:13.083Z,78.6
2017-07-22T00:27:14.828Z,78.5
2017-07-22T00:28:18.669Z,78.5
2017-07-22T00:29:20.401Z,78.3
2017-07-22T00:30:22.236Z,78.3
2017-07-22T00:31:23.952Z,78.3
2017-07-22T00:32:25.654Z,78.1
2017-07-22T00:33:27.378Z,78.6
2017-07-22T00:34:29.128Z,78.6
2017-07-22T00:35:30.883Z,78.4
2017-07-22T00:36:33.655Z,78.3
2017-07-22T00:37:35.434Z,78.1
2017-07-22T00:38:37.293Z,78.3
2017-07-22T00:39:39.032Z,78.7
2017-07-22T00:40:40.829Z,78.3
2017-07-22T00:41:42.550Z,78.8
2017-07-22T00:42:44.267Z,78.7
2017-07-22T00:43:45.993Z,78.7
2017-07-22T00:44:47.728Z,78.6
2017-07-22T00:45:49.480Z,78.6
2017-07-22T00:46:51.194Z,78.7
2017-07-22T00:47:52.977Z,78.8
2017-07-22T00:48:54.730Z,79.4
2017-07-22T00:49:56.371Z,79.3
2017-07-22T00:50:58.210Z,79.2
2017-07-22T00:51:59.929Z,79.4
2017-07-22T00:53:01.707Z,79.2
2017-07-22T00:54:03.434Z,79.1
2017-07-22T00:55:05.144Z,79.0
2017-07-22T00:56:06.879Z,79.0
2017-07-22T00:57:08.711Z,79.0
2017-07-22T00:58:10.430Z,79.0
2017-07-22T00:59:14.256Z,79.4
2017-07-22T01:00:15.896Z,79.2
2017-07-22T01:01:19.671Z,79.3
2017-07-22T01:02:21.285Z,79.3
2017-07-22T01:03:24.096Z,79.1
2017-07-22T01:04:25.808Z,79.3
2017-07-22T01:05:27.589Z,79.3
2017-07-22T01:06:29.301Z,79.2
2017-07-22T01:07:33.099Z,79.0
2017-07-22T01:08:34.817Z,79.7
2017-07-22T01:09:37.651Z,79.5
2017-07-22T01:10:39.382Z,79.5
2017-07-22T01:11:41.138Z,79.5
2017-07-22T01:12:42.799Z,79.3
2017-07-22T01:13:44.542Z,79.3
2017-07-22T01:14:46.305Z,79.9
2017-07-22T01:15:48.158Z,79.8
2017-07-22T01:16:49.913Z,80.0
2017-07-22T01:17:51.617Z,79.7
2017-07-22T01:18:53.363Z,79.9
2017-07-22T01:19:55.122Z,79.9
2017-07-22T01:20:56.843Z,79.8
2017-07-22T01:21:59.666Z,79.9
2017-07-22T01:23:01.346Z,79.9
2017-07-22T01:24:03.070Z,79.8
2017-07-22T01:25:04.740Z,79.8
2017-07-22T01:26:06.561Z,79.8
2017-07-22T01:27:08.289Z,79.8
2017-07-22T01:28:15.950Z,79.7
2017-07-22T01:29:17.686Z,79.8
2017-07-22T01:30:19.386Z,79.9
2017-07-22T01:31:21.109Z,80.0
2017-07-22T01:32:22.957Z,80.0
2017-07-22T01:33:24.674Z,80.1
2017-07-22T01:34:28.468Z,79.8
2017-07-22T01:35:30.174Z,80.1
2017-07-22T01:36:31.976Z,80.1
2017-07-22T01:37:33.685Z,80.1
2017-07-22T01:38:35.459Z,80.3
2017-07-22T01:39:37.206Z,80.3
2017-07-22T01:40:38.939Z,80.3
2017-07-22T01:41:40.671Z,80.2
2017-07-22T01:42:42.453Z,80.2
2017-07-22T01:43:44.180Z,80.1
2017-07-22T01:44:46.967Z,80.2
2017-07-22T01:45:48.650Z,80.8
2017-07-22T01:46:50.460Z,80.8
2017-07-22T01:47:52.147Z,80.4
2017-07-22T01:48:53.971Z,80.7
2017-07-22T01:49:55.691Z,80.9
2017-07-22T01:50:57.428Z,80.6
2017-07-22T01:51:59.161Z,80.5
2017-07-22T01:53:00.811Z,80.6
2017-07-22T01:54:02.551Z,80.5
2017-07-22T01:55:04.356Z,80.3
2017-07-22T01:56:06.079Z,80.3
2017-07-22T01:57:07.855Z,80.4
2017-07-22T01:58:09.540Z,80.9
2017-07-22T01:59:11.329Z,80.7
2017-07-22T02:00:13.057Z,80.8
2017-07-22T02:01:14.826Z,80.8
2017-07-22T02:02:16.546Z,80.4
2017-07-22T02:03:18.294Z,80.5
2017-07-22T02:04:21.056Z,80.7
2017-07-22T02:05:22.711Z,80.6
2017-07-22T02:06:24.454Z,80.6
2017-07-22T02:07:26.178Z,80.6
2017-07-22T02:08:27.943Z,80.6
2017-07-22T02:09:29.682Z,80.4
2017-07-22T02:10:31.379Z,80.6
2017-07-22T02:11:33.104Z,81.0
2017-07-22T02:12:34.764Z,80.4
2017-07-22T02:13:36.493Z,80.3
2017-07-22T02:14:38.244Z,80.5
2017-07-22T02:15:39.959Z,80.5
2017-07-22T02:16:41.727Z,81.0
2017-07-22T02:17:43.409Z,80.8
2017-07-22T02:18:45.253Z,80.8
2017-07-22T02:19:46.979Z,81.0
2017-07-22T02:20:48.733Z,81.2
2017-07-22T02:21:50.447Z,80.8
2017-07-22T02:22:52.150Z,81.2
2017-07-22T02:23:53.864Z,80.9
2017-07-22T02:24:55.549Z,80.5
2017-07-22T02:25:57.261Z,80.4
2017-07-22T02:26:59.019Z,79.9
2017-07-22T02:28:00.725Z,80.3
2017-07-22T02:29:02.499Z,80.3
2017-07-22T02:30:04.202Z,80.3
2017-07-22T02:31:06.012Z,79.9
2017-07-22T02:32:07.716Z,80.3
2017-07-22T02:33:09.497Z,80.7
2017-07-22T02:34:11.223Z,80.7
2017-07-22T02:35:13.020Z,80.4
2017-07-22T02:36:14.756Z,81.0
2017-07-22T02:37:16.483Z,80.8
2017-07-22T02:38:18.202Z,81.1
2017-07-22T02:39:20.004Z,81.1
2017-07-22T02:40:21.745Z,81.4
2017-07-22T02:41:23.500Z,81.1
2017-07-22T02:42:25.217Z,81.9
2017-07-22T02:43:26.985Z,82.5
2017-07-22T02:44:28.697Z,81.8
2017-07-22T02:45:30.478Z,82.5
2017-07-22T02:46:32.199Z,81.6
2017-07-22T02:47:33.905Z,82.3
2017-07-22T02:48:35.646Z,82.2
2017-07-22T02:49:37.480Z,82.1
2017-07-22T02:50:39.215Z,82.3
2017-07-22T02:51:40.946Z,82.2
2017-07-22T02:52:42.648Z,81.6
2017-07-22T02:53:45.462Z,81.6
2017-07-22T02:54:47.180Z,81.6
2017-07-22T02:55:48.984Z,81.7
2017-07-22T02:56:50.689Z,82.4
2017-07-22T02:57:52.402Z,83.0
2017-07-22T02:58:54.126Z,83.1
2017-07-22T02:59:55.965Z,83.6
2017-07-22T03:00:57.678Z,83.8
2017-07-22T03:01:59.452Z,83.6
2017-07-22T03:03:01.176Z,83.4
2017-07-22T03:04:02.950Z,83.8
2017-07-22T03:05:04.603Z,83.7
2017-07-22T03:06:06.457Z,83.7
2017-07-22T03:07:08.192Z,83.8
2017-07-22T03:08:09.941Z,84.1
2017-07-22T03:09:11.659Z,84.0
2017-07-22T03:10:13.356Z,84.1
2017-07-22T03:11:15.074Z,83.9
2017-07-22T03:12:17.853Z,84.2
2017-07-22T03:13:19.580Z,84.1
2017-07-22T03:14:21.341Z,83.4
2017-07-22T03:15:23.041Z,84.2
2017-07-22T03:16:24.861Z,84.1
2017-07-22T03:17:26.580Z,83.8
2017-07-22T03:18:30.388Z,84.0
2017-07-22T03:19:32.140Z,84.1
2017-07-22T03:20:33.807Z,84.6
2017-07-22T03:21:35.528Z,84.5
2017-07-22T03:22:37.199Z,84.6
2017-07-22T03:23:38.917Z,84.1
2017-07-22T03:24:40.658Z,83.9
2017-07-22T03:25:42.384Z,83.8
2017-07-22T03:26:44.190Z,84.4
2017-07-22T03:27:45.873Z,84.0
2017-07-22T03:28:47.658Z,84.0
2017-07-22T03:29:49.397Z,83.8
2017-07-22T03:30:51.162Z,83.8
2017-07-22T03:31:52.875Z,84.6
2017-07-22T03:32:54.618Z,84.1
2017-07-22T03:33:56.367Z,83.7
2017-07-22T03:34:58.070Z,83.9
2017-07-22T03:35:59.827Z,84.0
2017-07-22T03:37:01.625Z,83.8
2017-07-22T03:38:03.370Z,83.9
2017-07-22T03:39:05.137Z,83.7
2017-07-22T03:40:06.785Z,84.2
2017-07-22T03:41:08.632Z,83.6
2017-07-22T03:42:10.350Z,84.0
2017-07-22T03:43:12.126Z,84.2
2017-07-22T03:44:13.840Z,84.0
2017-07-22T03:45:15.559Z,84.4
2017-07-22T03:46:17.294Z,84.9
2017-07-22T03:47:19.119Z,85.2
2017-07-22T03:48:20.846Z,84.9
2017-07-22T03:49:22.611Z,85.1
2017-07-22T03:50:24.289Z,85.2
2017-07-22T03:51:26.098Z,85.3
2017-07-22T03:52:27.828Z,85.7
2017-07-22T03:53:29.630Z,85.5
2017-07-22T03:54:31.336Z,85.7
2017-07-22T03:55:33.077Z,85.6
2017-07-22T03:56:34.803Z,85.7
2017-07-22T03:57:36.593Z,85.6
2017-07-22T03:58:38.319Z,85.5
2017-07-22T03:59:40.169Z,85.5
2017-07-22T04:00:41.821Z,85.4
2017-07-22T04:01:43.569Z,85.5
2017-07-22T04:02:45.226Z,85.7
2017-07-22T04:03:46.982Z,85.7
2017-07-22T04:04:48.702Z,85.8
2017-07-22T04:05:50.453Z,85.9
2017-07-22T04:06:52.171Z,86.5
2017-07-22T04:07:54.926Z,86.4
2017-07-22T04:08:57.466Z,86.7
2017-07-22T04:09:59.227Z,86.5
2017-07-22T04:11:00.947Z,86.8
2017-07-22T04:12:03.706Z,86.6
2017-07-22T04:13:05.429Z,86.4
2017-07-22T04:14:07.214Z,86.9
2017-07-22T04:15:08.962Z,86.6
2017-07-22T04:16:10.674Z,86.6
2017-07-22T04:17:12.321Z,86.7
2017-07-22T04:18:14.120Z,86.7
2017-07-22T04:19:15.833Z,86.2
2017-07-22T04:20:17.592Z,86.5
2017-07-22T04:21:19.326Z,86.1
2017-07-22T04:22:21.041Z,86.1
2017-07-22T04:23:22.771Z,86.8
2017-07-22T04:24:24.609Z,87.0
2017-07-22T04:25:26.322Z,86.5
2017-07-22T04:26:28.075Z,86.8
2017-07-22T04:27:29.811Z,87.0
2017-07-22T04:28:31.577Z,87.7
2017-07-22T04:29:33.302Z,88.1
2017-07-22T04:30:35.095Z,88.1
2017-07-22T04:31:36.831Z,88.0
2017-07-22T04:32:38.599Z,88.2
2017-07-22T04:33:40.324Z,87.9
2017-07-22T04:34:42.166Z,88.4
2017-07-22T04:35:43.819Z,88.9
2017-07-22T04:36:45.540Z,89.2
2017-07-22T04:37:47.311Z,89.7
2017-07-22T04:38:49.068Z,90.0
2017-07-22T04:39:50.906Z,90.3
2017-07-22T04:40:52.633Z,90.2
2017-07-22T04:41:54.405Z,90.9
2017-07-22T04:42:56.126Z,90.6
2017-07-22T04:43:57.881Z,90.7
2017-07-22T04:44:59.538Z,91.3
2017-07-22T04:46:01.271Z,91.5
2017-07-22T04:47:03.030Z,91.2
2017-07-22T04:48:04.795Z,91.3
2017-07-22T04:49:06.516Z,91.7
2017-07-22T04:50:08.248Z,91.5
2017-07-22T04:51:09.979Z,92.1
2017-07-22T04:52:11.770Z,92.1
2017-07-22T04:53:13.501Z,92.1
2017-07-22T04:54:15.267Z,91.8
2017-07-22T04:55:17.020Z,92.3
2017-07-22T04:56:18.859Z,92.3
2017-07-22T04:57:20.583Z,92.1
2017-07-22T04:58:22.368Z,92.0
2017-07-22T04:59:24.082Z,92.3
2017-07-22T05:00:25.805Z,92.3
2017-07-22T05:01:27.535Z,92.2
2017-07-22T05:02:29.344Z,92.0
2017-07-22T05:03:31.059Z,91.9
2017-07-22T05:04:32.830Z,92.2
2017-07-22T05:05:34.578Z,92.0
2017-07-22T05:06:36.295Z,92.3
2017-07-22T05:07:37.943Z,91.9
2017-07-22T05:08:39.732Z,91.8
2017-07-22T05:09:41.448Z,92.1
2017-07-22T05:10:43.224Z,91.9
2017-07-22T05:11:45.010Z,92.0
2017-07-22T05:12:46.824Z,91.4
2017-07-22T05:13:48.580Z,91.5
2017-07-22T05:14:51.338Z,92.0
2017-07-22T05:15:53.064Z,92.1
2017-07-22T05:16:54.832Z,92.3
2017-07-22T05:17:56.481Z,92.1
2017-07-22T05:18:58.226Z,92.2
2017-07-22T05:19:59.943Z,92.0
2017-07-22T05:21:01.738Z,92.4
2017-07-22T05:22:03.474Z,92.5
2017-07-22T05:23:05.213Z,92.6
2017-07-22T05:24:06.898Z,92.6
2017-07-22T05:25:08.557Z,92.6
2017-07-22T05:26:11.943Z,92.5
2017-07-22T05:27:13.734Z,92.3
2017-07-22T05:28:15.482Z,92.5
2017-07-22T05:29:19.987Z,92.3
2017-07-22T05:30:23.563Z,92.5
2017-07-22T05:31:25.331Z,92.4
2017-07-22T05:32:27.078Z,92.5
2017-07-22T05:33:28.908Z,92.5
2017-07-22T05:34:30.681Z,92.5
2017-07-22T05:35:32.500Z,92.5
2017-07-22T05:36:34.181Z,92.4
2017-07-22T05:37:36.034Z,92.7
2017-07-22T05:38:37.764Z,92.9
2017-07-22T05:39:39.646Z,92.8
2017-07-22T05:40:41.381Z,92.7
2017-07-22T05:41:43.209Z,92.7
2017-07-22T05:42:44.942Z,92.7
2017-07-22T05:43:47.713Z,92.7
2017-07-22T05:44:49.371Z,92.7
2017-07-22T05:45:52.242Z,92.7
2017-07-22T05:46:53.982Z,92.7
2017-07-22T05:47:57.496Z,92.8
2017-07-22T05:48:59.258Z,92.7
2017-07-22T05:50:03.586Z,92.3
2017-07-22T05:51:07.074Z,92.3
2017-07-22T05:52:11.535Z,92.2
2017-07-22T05:53:13.287Z,92.4
2017-07-22T05:54:21.092Z,92.4
2017-07-22T05:55:22.923Z,92.5
2017-07-22T05:56:35.611Z,92.1
2017-07-22T05:57:37.336Z,91.9
2017-07-22T05:58:40.250Z,91.6
2017-07-22T05:59:42.054Z,91.6
2017-07-22T06:00:44.985Z,91.0
2017-07-22T06:01:46.763Z,91.2
2017-07-22T06:02:48.637Z,90.7
2017-07-22T06:03:50.463Z,90.7
2017-07-22T06:22:39.753Z,88.2
2017-07-22T06:23:41.504Z,87.9
2017-07-22T06:24:43.250Z,87.8
2017-07-22T06:25:45.017Z,88.3
2017-07-22T06:26:46.751Z,88.3
2017-07-22T06:27:49.532Z,88.1
2017-07-22T06:28:51.280Z,87.0
2017-07-22T06:29:53.038Z,86.5
2017-07-22T06:30:54.792Z,86.5
2017-07-22T06:31:56.622Z,86.4
2017-07-22T06:32:58.343Z,86.3
2017-07-22T06:34:00.110Z,86.0
2017-07-22T06:35:01.813Z,85.8
2017-07-22T06:36:03.642Z,86.6
2017-07-22T06:37:05.367Z,86.3
2017-07-22T06:38:07.100Z,86.6
2017-07-22T06:39:08.835Z,86.5
2017-07-22T06:40:12.587Z,86.9
2017-07-22T06:41:14.311Z,87.2
2017-07-22T06:42:16.137Z,86.9
2017-07-22T06:43:17.872Z,86.5
2017-07-22T06:44:19.635Z,86.5
2017-07-22T06:45:21.369Z,86.3
2017-07-22T06:46:23.122Z,86.1
2017-07-22T06:47:24.908Z,85.7
2017-07-22T06:48:26.668Z,86.1
2017-07-22T06:49:28.387Z,86.5
2017-07-22T06:50:31.122Z,86.8
2017-07-22T06:51:32.835Z,87.0
2017-07-22T06:52:34.647Z,86.8
2017-07-22T06:53:36.366Z,86.8
2017-07-22T06:54:38.126Z,87.0
2017-07-22T06:55:39.862Z,87.1
2017-07-22T06:56:41.579Z,86.7
2017-07-22T06:57:43.249Z,86.8
2017-07-22T06:58:44.958Z,86.9
2017-07-22T06:59:46.786Z,86.8
2017-07-22T07:00:48.505Z,87.1
2017-07-22T07:01:51.304Z,88.0
2017-07-22T07:02:52.964Z,87.5
2017-07-22T07:03:54.791Z,88.0
2017-07-22T07:04:56.515Z,87.9
2017-07-22T07:05:58.281Z,87.6
2017-07-22T07:07:00.013Z,86.8
2017-07-22T07:08:01.798Z,86.5
2017-07-22T07:09:03.530Z,86.6
2017-07-22T07:10:05.293Z,86.9
2017-07-22T07:11:07.024Z,87.2
2017-07-22T07:12:08.743Z,86.7
2017-07-22T07:13:10.533Z,86.3
2017-07-22T07:14:12.257Z,85.6
2017-07-22T07:15:13.958Z,85.7
2017-07-22T07:16:15.673Z,86.7
2017-07-22T07:17:17.403Z,86.9
2017-07-22T07:18:19.122Z,86.8
2017-07-22T07:19:20.931Z,86.6
2017-07-22T07:20:22.640Z,86.7
2017-07-22T07:21:24.357Z,87.0
2017-07-22T07:22:26.013Z,86.2
2017-07-22T07:23:27.799Z,87.0
2017-07-22T07:24:29.513Z,86.8
2017-07-22T07:25:31.241Z,86.9
2017-07-22T07:26:32.964Z,86.5
2017-07-22T07:27:34.739Z,85.7
2017-07-22T07:28:36.462Z,86.0
2017-07-22T07:29:38.269Z,86.0
2017-07-22T07:30:40.004Z,86.1
2017-07-22T07:31:41.763Z,85.6
2017-07-22T07:32:43.482Z,85.6
2017-07-22T07:33:45.261Z,86.0
2017-07-22T07:34:46.966Z,86.5
2017-07-22T07:35:48.759Z,86.9
2017-07-22T07:36:50.489Z,87.0
2017-07-22T07:37:52.271Z,87.3
2017-07-22T07:38:54.002Z,87.6
2017-07-22T07:39:55.677Z,87.2
2017-07-22T07:40:57.387Z,86.6
2017-07-22T07:41:59.203Z,85.7
2017-07-22T07:43:00.922Z,86.4
2017-07-22T07:44:02.714Z,86.5
2017-07-22T07:45:04.435Z,86.8
2017-07-22T07:46:07.224Z,86.7
2017-07-22T07:47:08.975Z,87.1
2017-07-22T07:48:11.732Z,87.3
2017-07-22T07:49:13.454Z,87.1
2017-07-22T07:50:15.200Z,87.5
2017-07-22T07:51:16.935Z,88.3
2017-07-22T07:52:18.726Z,88.0
2017-07-22T07:53:20.450Z,88.1
2017-07-22T07:54:22.173Z,88.6
2017-07-22T07:55:24.994Z,89.1
2017-07-22T07:56:26.718Z,88.9
2017-07-22T07:57:28.516Z,88.8
2017-07-22T07:58:30.245Z,88.5
2017-07-22T07:59:32.116Z,88.0
2017-07-22T08:00:33.774Z,86.7
2017-07-22T08:01:35.590Z,86.0
2017-07-22T08:02:37.305Z,86.6
2017-07-22T08:03:39.070Z,86.6
2017-07-22T08:04:40.798Z,87.0
2017-07-22T08:05:42.509Z,87.3
2017-07-22T08:06:44.228Z,87.8
2017-07-22T08:07:45.903Z,87.0
2017-07-22T08:08:47.644Z,86.8
2017-07-22T08:09:50.320Z,86.3
2017-07-22T08:10:52.040Z,85.3
2017-07-22T08:11:53.781Z,84.7
2017-07-22T08:12:55.505Z,84.7
2017-07-22T08:13:57.316Z,84.8
2017-07-22T08:14:59.052Z,84.5
2017-07-22T08:16:00.877Z,84.1
2017-07-22T08:17:02.615Z,84.4
2017-07-22T08:18:05.386Z,84.4
2017-07-22T08:19:07.117Z,84.0
2017-07-22T08:20:08.769Z,83.5
2017-07-22T08:21:10.531Z,82.9
2017-07-22T08:22:12.188Z,82.9
2017-07-22T08:23:13.936Z,83.4
2017-07-22T08:24:15.655Z,83.0
2017-07-22T08:25:17.444Z,83.3
2017-07-22T08:26:19.210Z,83.5
2017-07-22T08:27:27.668Z,82.7
2017-07-22T08:28:29.391Z,83.5
2017-07-22T08:29:32.357Z,83.6
2017-07-22T08:30:34.067Z,83.6
2017-07-22T08:31:35.914Z,84.1
2017-07-22T08:32:37.640Z,84.2
2017-07-22T08:33:39.377Z,83.9
2017-07-22T08:34:41.027Z,83.9
2017-07-22T08:35:42.773Z,83.8
2017-07-22T08:36:44.503Z,84.4
2017-07-22T08:37:47.313Z,84.5
2017-07-22T08:38:49.049Z,84.3
2017-07-22T08:39:50.728Z,84.1
2017-07-22T08:40:52.447Z,84.5
2017-07-22T08:41:54.121Z,84.5
2017-07-22T08:42:55.863Z,84.2
2017-07-22T08:43:57.678Z,84.1
2017-07-22T08:44:59.405Z,84.3
2017-07-22T08:46:01.177Z,84.2
2017-07-22T08:47:02.994Z,83.8
2017-07-22T08:48:04.717Z,84.1
2017-07-22T08:49:06.464Z,84.0
2017-07-22T08:50:08.253Z,84.1
2017-07-22T08:51:09.892Z,84.5
2017-07-22T08:52:11.596Z,83.8
2017-07-22T08:53:13.320Z,83.2
2017-07-22T08:54:15.166Z,83.3
2017-07-22T08:55:16.892Z,83.3
2017-07-22T08:56:18.662Z,83.1
2017-07-22T08:57:20.317Z,83.5
2017-07-22T08:58:22.153Z,82.9
2017-07-22T08:59:23.883Z,82.2
2017-07-22T09:00:25.644Z,82.4
2017-07-22T09:01:27.407Z,82.2
2017-07-22T09:02:29.246Z,81.9
2017-07-22T09:03:30.979Z,81.8
2017-07-22T09:04:32.738Z,82.0
2017-07-22T09:05:34.473Z,81.4
2017-07-22T09:06:36.229Z,81.1
2017-07-22T09:07:37.890Z,80.5
2017-07-22T09:08:40.646Z,80.3
2017-07-22T09:09:42.299Z,80.2
2017-07-22T09:10:44.020Z,80.0
2017-07-22T09:11:45.790Z,79.7
2017-07-22T09:12:47.510Z,79.1
2017-07-22T09:13:49.281Z,78.9
2017-07-22T09:14:51.013Z,78.4
2017-07-22T09:15:52.768Z,78.7
2017-07-22T09:16:54.486Z,78.3
2017-07-22T09:17:56.280Z,78.2
2017-07-22T09:18:57.993Z,77.1
2017-07-22T09:19:59.715Z,77.0
2017-07-22T09:21:01.450Z,76.4
2017-07-22T09:22:03.262Z,76.3
2017-07-22T09:23:04.938Z,75.8
2017-07-22T09:24:06.765Z,76.1
2017-07-22T09:25:08.547Z,76.4
2017-07-22T09:26:10.264Z,76.7
2017-07-22T09:27:11.978Z,76.5
2017-07-22T09:28:13.746Z,76.1
2017-07-22T09:29:15.510Z,76.4
2017-07-22T09:30:17.290Z,76.5
2017-07-22T09:31:19.011Z,76.5
2017-07-22T09:32:21.844Z,75.7
2017-07-22T09:33:23.565Z,75.8
2017-07-22T09:34:25.326Z,75.6
2017-07-22T09:35:27.086Z,74.3
2017-07-22T09:36:28.925Z,74.8
2017-07-22T09:37:31.633Z,75.5
2017-07-22T09:38:33.454Z,74.8
2017-07-22T09:39:35.169Z,74.7
2017-07-22T09:40:36.873Z,74.7
2017-07-22T09:41:38.599Z,75.3
2017-07-22T09:42:40.590Z,75.3
2017-07-22T09:43:42.270Z,75.4
2017-07-22T09:44:44.004Z,75.4
2017-07-22T09:45:45.812Z,75.7
2017-07-22T09:46:47.543Z,75.7
2017-07-22T09:47:49.378Z,76.0
2017-07-22T09:48:51.057Z,75.4
2017-07-22T09:49:52.870Z,75.3
2017-07-22T09:50:54.642Z,74.6
2017-07-22T09:51:56.470Z,75.3
2017-07-22T09:52:58.207Z,75.4
2017-07-22T09:53:59.910Z,74.6
2017-07-22T09:55:01.632Z,74.1
2017-07-22T09:56:03.464Z,73.7
2017-07-22T09:57:05.213Z,73.1
2017-07-22T09:58:06.950Z,73.1
2017-07-22T09:59:08.602Z,72.0
2017-07-22T10:00:10.366Z,71.4
2017-07-22T10:01:12.007Z,70.6
2017-07-22T10:02:13.840Z,70.5
2017-07-22T10:03:15.583Z,70.3
2017-07-22T10:04:17.337Z,69.9
2017-07-22T10:05:19.066Z,69.6
2017-07-22T10:06:20.766Z,69.8
2017-07-22T10:07:22.483Z,69.7
2017-07-22T10:08:24.228Z,70.0
2017-07-22T10:09:25.984Z,69.1
2017-07-22T10:10:27.764Z,68.4
2017-07-22T10:11:29.438Z,67.9
2017-07-22T10:12:31.215Z,67.5
2017-07-22T10:13:32.953Z,67.9
2017-07-22T10:14:34.716Z,67.6
2017-07-22T10:15:36.443Z,68.2
2017-07-22T10:16:38.290Z,67.9
2017-07-22T10:17:40.040Z,67.7
2017-07-22T10:18:41.813Z,67.9
2017-07-22T10:19:43.532Z,68.0
2017-07-22T10:20:45.311Z,67.9
2017-07-22T10:21:46.992Z,68.5
2017-07-22T10:22:48.794Z,68.2
2017-07-22T10:23:50.595Z,68.4
2017-07-22T10:24:52.405Z,68.7
2017-07-22T10:25:54.132Z,68.1
2017-07-22T10:26:55.896Z,67.7
2017-07-22T10:27:58.657Z,67.9
2017-07-22T10:29:00.392Z,68.0
2017-07-22T10:30:02.207Z,67.4
2017-07-22T10:31:03.922Z,67.1
2017-07-22T10:32:05.751Z,66.9
2017-07-22T10:33:07.556Z,66.4
2017-07-22T10:34:09.364Z,66.5
2017-07-22T10:35:11.027Z,67.3
2017-07-22T10:36:12.865Z,67.3
2017-07-22T10:37:14.580Z,67.3
2017-07-22T10:38:16.336Z,67.4
2017-07-22T10:39:18.073Z,66.9
2017-07-22T10:40:19.789Z,67.0
2017-07-22T10:41:21.506Z,66.5
2017-07-22T10:42:23.329Z,66.7
2017-07-22T10:43:25.055Z,65.4
2017-07-22T10:44:26.832Z,64.8
2017-07-22T10:45:28.554Z,65.4
2017-07-22T10:46:30.329Z,65.5
2017-07-22T10:47:32.057Z,65.5
2017-07-22T10:48:33.843Z,65.8
2017-07-22T10:49:35.584Z,64.9
2017-07-22T10:50:37.353Z,64.7
2017-07-22T10:51:39.072Z,64.5
2017-07-22T10:52:41.854Z,63.3
2017-07-22T10:53:43.581Z,62.2
2017-07-22T10:54:45.311Z,61.3
2017-07-22T10:55:47.031Z,60.6
2017-07-22T10:56:49.670Z,60.8
2017-07-22T10:57:53.397Z,60.2
2017-07-22T10:58:55.117Z,60.6
2017-07-22T10:59:56.945Z,60.7
2017-07-22T11:00:58.673Z,60.1
2017-07-22T11:02:00.432Z,60.1
2017-07-22T11:03:02.103Z,59.7
2017-07-22T11:04:04.020Z,59.4
2017-07-22T11:05:05.746Z,58.6
2017-07-22T11:06:07.467Z,58.3
2017-07-22T11:07:09.319Z,58.4
2017-07-22T11:08:10.972Z,58.6
2017-07-22T11:09:12.764Z,58.6
2017-07-22T11:10:14.512Z,58.6
2017-07-22T11:11:17.284Z,59.3
2017-07-22T11:12:19.002Z,59.4
2017-07-22T11:13:20.708Z,58.5
2017-07-22T11:14:22.423Z,58.6
2017-07-22T11:15:24.098Z,58.7
2017-07-22T11:16:25.826Z,58.4
2017-07-22T11:17:27.661Z,57.7
2017-07-22T11:18:29.384Z,56.8
2017-07-22T11:19:31.173Z,56.6
2017-07-22T11:20:32.853Z,56.6
2017-07-22T11:21:34.587Z,56.1
2017-07-22T11:22:36.408Z,56.0
2017-07-22T11:23:38.139Z,56.4
2017-07-22T11:24:39.866Z,56.0
2017-07-22T11:25:41.527Z,56.2
2017-07-22T11:26:43.250Z,56.3
2017-07-22T11:27:45.037Z,56.1
2017-07-22T11:28:46.800Z,56.1
2017-07-22T11:29:48.632Z,56.0
2017-07-22T11:30:50.329Z,56.8
2017-07-22T11:31:52.128Z,56.5
2017-07-22T11:32:53.866Z,57.0
2017-07-22T11:33:55.628Z,57.1
2017-07-22T11:34:57.369Z,57.1
2017-07-22T11:35:59.099Z,56.9
2017-07-22T11:37:00.832Z,56.2
2017-07-22T11:38:02.614Z,56.0
2017-07-22T11:39:04.341Z,56.0
2017-07-22T11:40:06.152Z,55.8
2017-07-22T11:41:07.880Z,55.5
2017-07-22T11:42:10.645Z,55.3
2017-07-22T11:43:12.362Z,54.6
2017-07-22T11:44:15.173Z,54.8
2017-07-22T11:45:16.893Z,54.7
2017-07-22T11:46:18.628Z,54.9
2017-07-22T11:47:20.366Z,54.9
2017-07-22T11:48:22.098Z,54.2
2017-07-22T11:49:23.822Z,54.7
2017-07-22T11:50:25.686Z,54.8
2017-07-22T11:51:27.417Z,54.5
2017-07-22T11:52:29.250Z,54.1
2017-07-22T11:53:31.052Z,53.7
2017-07-22T11:54:32.841Z,53.8
2017-07-22T11:55:34.587Z,52.3
2017-07-22T11:56:36.421Z,54.1
2017-07-22T11:57:38.149Z,53.3
2017-07-22T11:58:39.975Z,53.1
2017-07-22T11:59:41.683Z,52.8
2017-07-22T12:00:43.573Z,52.6
2017-07-22T12:01:45.309Z,52.4
2017-07-22T12:02:48.120Z,51.6
2017-07-22T12:03:49.842Z,51.8
2017-07-22T12:04:51.506Z,51.9
2017-07-22T12:05:54.309Z,52.7
2017-07-22T12:06:56.033Z,52.1
2017-07-22T12:08:01.090Z,52.5
2017-07-22T12:09:03.972Z,53.2
2017-07-22T12:10:07.033Z,52.4
2017-07-22T12:11:09.218Z,52.2
2017-07-22T12:12:11.328Z,51.5
2017-07-22T12:13:13.941Z,51.8
2017-07-22T12:14:15.667Z,51.7
2017-07-22T12:15:17.457Z,51.4
2017-07-22T12:16:19.190Z,50.9
2017-07-22T12:17:20.953Z,51.9
2017-07-22T12:18:24.203Z,51.6
2017-07-22T12:19:27.090Z,51.9
2017-07-22T12:20:29.612Z,51.4
2017-07-22T12:21:31.756Z,51.2
2017-07-22T12:22:35.279Z,52.0
2017-07-22T12:23:39.219Z,51.4
2017-07-22T12:24:42.101Z,50.7
2017-07-22T12:25:43.851Z,50.5
2017-07-22T12:26:46.151Z,49.4
2017-07-22T12:27:48.922Z,49.2
2017-07-22T12:28:51.327Z,49.7
2017-07-22T12:29:53.086Z,49.3
2017-07-22T12:30:55.572Z,49.5
2017-07-22T12:31:57.725Z,48.9
2017-07-22T12:33:00.981Z,49.4
2017-07-22T12:34:03.135Z,48.4
2017-07-22T12:35:04.854Z,47.9
2017-07-22T12:36:06.885Z,47.7
2017-07-22T12:37:09.316Z,47.2
2017-07-22T12:38:11.793Z,47.0
2017-07-22T12:39:14.663Z,47.1
2017-07-22T12:40:16.426Z,46.7
2017-07-22T12:41:18.159Z,46.6
2017-07-22T12:42:20.010Z,46.9
2017-07-22T12:43:21.743Z,46.9
2017-07-22T12:44:23.443Z,47.0
2017-07-22T12:45:25.537Z,47.2
2017-07-22T12:46:28.382Z,47.2
2017-07-22T12:47:30.193Z,47.2
2017-07-22T12:48:32.326Z,47.1
2017-07-22T12:49:34.916Z,47.4
2017-07-22T12:50:38.010Z,47.9
2017-07-22T12:51:40.957Z,48.5
2017-07-22T12:52:42.959Z,49.6
2017-07-22T12:53:45.536Z,50.9
2017-07-22T12:54:48.051Z,50.3
2017-07-22T12:55:52.337Z,49.7
2017-07-22T12:56:54.061Z,49.9
2017-07-22T12:57:55.853Z,49.5
2017-07-22T12:58:57.591Z,48.6
2017-07-22T12:59:59.346Z,48.1
2017-07-22T13:01:01.003Z,47.8
2017-07-22T13:02:04.161Z,47.8
2017-07-22T13:03:05.948Z,47.4
2017-07-22T13:04:07.768Z,47.5
2017-07-22T13:05:09.520Z,46.8
2017-07-22T13:06:11.351Z,46.6
2017-07-22T13:07:13.094Z,46.7
2017-07-22T13:08:15.155Z,46.8
2017-07-22T13:09:16.873Z,47.7
2017-07-22T13:10:18.655Z,48.3
2017-07-22T13:11:20.358Z,48.4
2017-07-22T13:12:22.170Z,48.4
2017-07-22T13:13:23.831Z,47.2
2017-07-22T13:14:25.654Z,46.7
2017-07-22T13:15:27.391Z,46.3
2017-07-22T13:16:29.157Z,47.0
2017-07-22T13:17:30.888Z,47.0
2017-07-22T13:18:32.628Z,47.4
2017-07-22T13:19:34.348Z,47.8
2017-07-22T13:20:37.019Z,47.4
2017-07-22T13:21:40.595Z,47.6
2017-07-22T13:22:43.905Z,47.0
2017-07-22T13:23:48.344Z,48.1
2017-07-22T13:24:52.579Z,47.1
2017-07-22T13:25:57.353Z,46.7
2017-07-22T13:26:59.447Z,47.1
2017-07-22T13:28:02.274Z,47.5
2017-07-22T13:29:04.027Z,47.4
2017-07-22T13:30:06.564Z,47.7
2017-07-22T13:31:08.325Z,47.5
2017-07-22T13:32:10.066Z,48.5
2017-07-22T13:33:12.855Z,47.6
2017-07-22T13:34:14.610Z,47.7
2017-07-22T13:35:16.326Z,47.5
2017-07-22T13:36:18.046Z,47.4
2017-07-22T13:37:19.767Z,47.0
2017-07-22T13:38:21.482Z,46.9
2017-07-22T13:39:23.210Z,47.8
2017-07-22T13:40:24.957Z,47.5
2017-07-22T13:41:26.680Z,47.4
2017-07-22T13:42:28.338Z,47.2
2017-07-22T13:43:30.096Z,47.2
2017-07-22T13:44:31.817Z,47.4
2017-07-22T13:45:33.622Z,47.7
2017-07-22T13:46:35.397Z,47.0
2017-07-22T13:47:38.071Z,47.3
2017-07-22T13:48:39.822Z,46.3
2017-07-22T13:49:41.491Z,46.0
2017-07-22T13:50:43.223Z,46.2
2017-07-22T13:51:44.955Z,46.3
2017-07-22T13:52:46.682Z,46.2
2017-07-22T13:53:48.442Z,46.9
2017-07-22T13:54:50.172Z,47.7
2017-07-22T13:55:51.935Z,46.5
2017-07-22T13:56:53.567Z,46.1
2017-07-22T13:57:55.289Z,45.6
2017-07-22T13:58:57.013Z,45.5
2017-07-22T13:59:58.831Z,45.5
2017-07-22T14:01:00.550Z,45.5
2017-07-22T14:02:02.271Z,45.7